Aircraft
DEFAULT PR-QAA Citation
UHPP
Yelizovo Airport
PADK
Adak Airport
Pilot:: Eber
Aircraft:: Cessna Citation CJ4
Alternate: PACD
Network: ivao
FLIGHT DETAILS
Distance: 909nm Duration 02h 11m
Cruise Speed: Flight Level: 41000
Validation: Validated Type Charter
Flight Fuel
ZFW: 4495
Block Fuel/Initial FOB: 2663
Flight Fuel: 1300
Cargo
Passengers: 9
Cargo: 225
ROUTE
ROUTE: PIRU4M PIRUT RAPAK LUMES SYA
REMARKS:
DATE
Date: 26-05-08
Departure Time: 1749
Cargo: 225
FLIGHT DETAILS
Crashed: No
Validator Comments: Validado por Rafael
Flight Rating: 100
LANDING ANALYSIS
Landing wind: 330º/7 kt
Landing heading: 58º
Landing VS:: -204 ft/min
Landing IAS:: 118 kt
Landing Force G: 1 G
Landing Bank: -1
Landing Pitch: 1
Landing Flaps: 100
Navigation Lights: ON
Landing Lights: ON
Beacon Lights: ON
Strobe Lights: ON
viserfly

ALTITUDE CHART

viserfly

MAIN EVENTS

DATE EVENT IAS ALTITUDE
2026-05-08 17:36:41 FLYacars version 1.3.5 0 215
2026-05-08 17:36:55 Beacon Lights ON 0 215
2026-05-08 17:39:38 Taxi Lights ON 0 215
2026-05-08 17:39:39 Aircraft boarding in progress 0 215
2026-05-08 17:39:39 Navigation Lights ON 0 215
2026-05-08 17:39:39 Strobe Lights ON 0 215
2026-05-08 17:39:55 FLAPS 50% 0 215
2026-05-08 17:41:11 Starting Engine 2 0 215
2026-05-08 17:41:24 Starting Engine 1 0 215
2026-05-08 17:44:45 Aircraft taxiing to runway 3 215
2026-05-08 17:48:32 Landing Lights ON 0 219
2026-05-08 17:48:32 Taxi Lights OFF 0 219
2026-05-08 17:48:33 Taxi Lights ON 0 219
2026-05-08 17:49:10 Detected Take-off roll, HDG 351, IAS 137kt, GS 136kt, G-force 1.2g, Pitch -4.2deg, Bank -0.4deg, Wind 070/04kt, Temp -1°C 137 213
2026-05-08 17:49:10 Airborne 137 213
2026-05-08 17:49:15 Gear UP, IAS 158kt, GS 156kt, ALT 25ft AGL 158 235
2026-05-08 17:50:02 FLAPS 0% 194kt, ALT 746ft 194 746
2026-05-08 17:52:37 Landing Lights OFF 238 10134
2026-05-08 17:52:37 Taxi Lights OFF 238 10134
2026-05-08 19:51:31 Landing Lights ON 239 9440
2026-05-08 19:51:31 Taxi Lights ON 239 9440
2026-05-08 19:57:01 Gear DOWN, IAS 239kt, GS 242kt, ALT 2367ft AGL 239 2367
2026-05-08 19:57:50 FLAPS 50% 179kt, ALT 1500ft 179 1500
2026-05-08 19:57:56 FLAPS 100% 170kt, ALT 1430ft 170 1430
2026-05-08 20:00:29 Landed at destination with a landing rate of -204fpm, G-force 1.0g, Pitch 1.0deg, Bank -1.0deg, HDG 58deg, IAS 118kt, GS 117kt, Wind 330/07kt, Temp 3°C 118 13
2026-05-08 20:00:47 Aircraft taxiing to apron 26 12
2026-05-08 20:00:57 FLAPS 50% 1 11
2026-05-08 20:04:13 Aircraft at gate/stand, ground services are moving into position, disembarkation has begun. Remaining FOB 1363kg FLYacars v1.3.5 0 9
viserfly

ACARS DATA

DATE IAS GS ALTITUDE FUEL CONSUMED OAT FLIGHT STATUS
2026-05-08 17:37:11 0 0 215 0 -1 BOARDING
2026-05-08 17:37:41 0 0 215 0 -1 BOARDING
2026-05-08 17:38:11 0 0 215 0 -1 BOARDING
2026-05-08 17:38:41 0 0 215 0 -1 BOARDING
2026-05-08 17:39:11 0 0 215 0 -1 BOARDING
2026-05-08 17:39:41 0 0 215 0 -1 BOARDING
2026-05-08 17:40:11 0 0 215 0 -1 BOARDING
2026-05-08 17:40:41 0 2 215 0 -1 PUSHBACK
2026-05-08 17:41:11 0 1 215 0 -1 PUSHBACK
2026-05-08 17:41:41 0 0 215 1 -1 PUSHBACK
2026-05-08 17:42:11 0 0 215 2 -1 PUSHBACK
2026-05-08 17:42:41 0 0 215 3 -1 PUSHBACK
2026-05-08 17:43:11 0 0 215 4 -1 PUSHBACK
2026-05-08 17:43:41 0 0 215 4 -1 PUSHBACK
2026-05-08 17:44:11 0 0 215 5 -1 PUSHBACK
2026-05-08 17:44:41 0 1 215 6 -1 PUSHBACK
2026-05-08 17:45:11 9 9 215 8 -1 TAXI TO RUNWAY
2026-05-08 17:45:41 14 14 216 9 -1 TAXI TO RUNWAY
2026-05-08 17:46:11 14 16 217 10 -1 TAXI TO RUNWAY
2026-05-08 17:46:41 16 16 218 11 -1 TAXI TO RUNWAY
2026-05-08 17:47:11 14 16 219 12 -1 TAXI TO RUNWAY
2026-05-08 17:47:41 0 0 218 13 -1 TAXI TO RUNWAY
2026-05-08 17:48:11 12 15 219 14 -1 TAXI TO RUNWAY
2026-05-08 17:48:41 0 0 219 15 -1 TAXI TO RUNWAY
2026-05-08 17:49:11 142 141 218 24 -1 TAKEOFF
2026-05-08 17:49:41 182 179 322 30 -1 ON FINAL
2026-05-08 17:50:11 216 212 727 36 0 ON FINAL
2026-05-08 17:50:41 222 212 2127 42 -1 ON FINAL
2026-05-08 17:51:11 233 243 4003 52 -4 CLIMB
2026-05-08 17:51:41 237 256 6263 62 -8 CLIMB
2026-05-08 17:52:11 238 269 8355 73 -12 CLIMB
2026-05-08 17:52:41 237 282 10404 84 -15 CLIMB
2026-05-08 17:53:11 237 293 12319 95 -18 CLIMB
2026-05-08 17:53:41 238 304 14067 106 -21 CLIMB
2026-05-08 17:54:11 237 313 15691 116 -24 CLIMB
2026-05-08 17:54:41 238 323 17262 127 -27 CLIMB
2026-05-08 17:55:11 238 332 18876 138 -31 CLIMB
2026-05-08 17:55:41 238 354 20494 149 -34 CLIMB
2026-05-08 17:56:11 237 362 21938 160 -38 CLIMB
2026-05-08 17:56:41 237 372 23142 170 -39 CLIMB
2026-05-08 17:57:11 237 385 24185 180 -40 CLIMB
2026-05-08 17:57:41 238 396 25154 190 -41 CLIMB
2026-05-08 17:58:11 238 407 26066 199 -41 CLIMB
2026-05-08 17:58:41 238 418 26914 208 -42 CLIMB
2026-05-08 17:59:11 233 424 27885 217 -43 CLIMB
2026-05-08 17:59:41 228 427 28883 226 -43 CLIMB
2026-05-08 18:00:11 223 428 29911 235 -44 CLIMB
2026-05-08 18:00:41 219 430 30859 243 -44 CLIMB
2026-05-08 18:01:11 214 430 31788 251 -45 CLIMB
2026-05-08 18:01:41 210 431 32670 259 -45 CLIMB
2026-05-08 18:02:11 206 428 33641 266 -45 CLIMB
2026-05-08 18:02:41 202 425 34552 273 -46 CLIMB
2026-05-08 18:03:11 198 423 35385 280 -46 CLIMB
2026-05-08 18:03:41 194 422 36139 286 -46 CLIMB
2026-05-08 18:04:11 191 420 36837 292 -46 CLIMB
2026-05-08 18:04:41 188 418 37455 298 -46 CLIMB
2026-05-08 18:05:11 186 417 38039 304 -46 CLIMB
2026-05-08 18:05:41 184 415 38585 309 -46 CLIMB
2026-05-08 18:06:11 182 414 39105 314 -46 CLIMB
2026-05-08 18:06:41 180 412 39598 320 -46 CLIMB
2026-05-08 18:07:11 182 417 39898 324 -46 ENROUTE
2026-05-08 18:07:41 188 427 39813 329 -46 ENROUTE
2026-05-08 18:08:11 191 433 39814 333 -46 ENROUTE
2026-05-08 18:08:41 193 438 39814 338 -46 ENROUTE
2026-05-08 18:09:11 196 442 39814 342 -46 ENROUTE
2026-05-08 18:09:41 198 446 39810 346 -46 ENROUTE
2026-05-08 18:10:11 200 449 39809 351 -46 ENROUTE
2026-05-08 18:10:41 201 451 39812 355 -46 ENROUTE
2026-05-08 18:11:11 202 453 39810 359 -46 ENROUTE
2026-05-08 18:11:41 203 455 39810 364 -46 ENROUTE
2026-05-08 18:12:11 203 456 39825 368 -47 ENROUTE
2026-05-08 18:12:41 204 458 39829 372 -47 ENROUTE
2026-05-08 18:13:11 205 459 39834 377 -47 ENROUTE
2026-05-08 18:13:41 205 460 39838 381 -47 ENROUTE
2026-05-08 18:14:11 206 461 39835 385 -47 ENROUTE
2026-05-08 18:14:41 207 462 39837 390 -47 ENROUTE
2026-05-08 18:15:11 207 463 39838 394 -47 ENROUTE
2026-05-08 18:15:41 207 463 39839 398 -47 ENROUTE
2026-05-08 18:16:11 208 464 39836 402 -47 ENROUTE
2026-05-08 18:16:41 208 464 39838 407 -47 ENROUTE
2026-05-08 18:17:11 208 464 39826 411 -46 ENROUTE
2026-05-08 18:17:41 208 464 39828 415 -46 ENROUTE
2026-05-08 18:18:11 208 464 39829 420 -46 ENROUTE
2026-05-08 18:18:41 208 464 39830 424 -46 ENROUTE
2026-05-08 18:19:11 208 464 39829 428 -46 ENROUTE
2026-05-08 18:19:41 209 464 39829 432 -46 ENROUTE
2026-05-08 18:20:11 209 464 39828 437 -46 ENROUTE
2026-05-08 18:20:41 209 464 39829 441 -46 ENROUTE
2026-05-08 18:21:11 209 464 39828 445 -46 ENROUTE
2026-05-08 18:21:41 209 464 39828 450 -46 ENROUTE
2026-05-08 18:22:11 208 464 39840 454 -47 ENROUTE
2026-05-08 18:22:41 208 464 39840 458 -47 ENROUTE
2026-05-08 18:23:11 208 465 39840 463 -47 ENROUTE
2026-05-08 18:23:41 208 465 39841 467 -47 ENROUTE
2026-05-08 18:24:11 208 465 39842 471 -47 ENROUTE
2026-05-08 18:24:41 209 465 39843 475 -47 ENROUTE
2026-05-08 18:25:11 209 465 39844 480 -47 ENROUTE
2026-05-08 18:25:41 209 465 39845 484 -47 ENROUTE
2026-05-08 18:26:11 209 465 39845 488 -47 ENROUTE
2026-05-08 18:26:41 209 465 39846 493 -47 ENROUTE
2026-05-08 18:27:11 209 465 39846 497 -47 ENROUTE
2026-05-08 18:27:41 209 465 39847 501 -47 ENROUTE
2026-05-08 18:28:11 209 465 39847 506 -47 ENROUTE
2026-05-08 18:28:41 209 465 39847 510 -47 ENROUTE
2026-05-08 18:29:11 209 465 39847 514 -47 ENROUTE
2026-05-08 18:29:41 210 465 39842 518 -47 ENROUTE
2026-05-08 18:30:11 209 465 39843 523 -47 ENROUTE
2026-05-08 18:30:41 209 465 39843 527 -47 ENROUTE
2026-05-08 18:31:11 209 464 39843 531 -47 ENROUTE
2026-05-08 18:31:41 208 464 39844 536 -47 ENROUTE
2026-05-08 18:32:11 208 464 39857 540 -47 ENROUTE
2026-05-08 18:32:41 208 465 39856 544 -47 ENROUTE
2026-05-08 18:33:11 208 465 39856 549 -47 ENROUTE
2026-05-08 18:33:41 208 465 39857 553 -47 ENROUTE
2026-05-08 18:34:11 209 465 39858 557 -47 ENROUTE
2026-05-08 18:34:41 209 465 39859 561 -47 ENROUTE
2026-05-08 18:35:11 209 465 39860 566 -47 ENROUTE
2026-05-08 18:35:41 209 465 39860 570 -47 ENROUTE
2026-05-08 18:36:11 209 465 39861 574 -47 ENROUTE
2026-05-08 18:36:41 210 465 39862 579 -47 ENROUTE
2026-05-08 18:37:11 210 465 39863 583 -47 ENROUTE
2026-05-08 18:37:41 209 464 39863 587 -47 ENROUTE
2026-05-08 18:38:11 209 464 39860 592 -47 ENROUTE
2026-05-08 18:38:41 209 464 39861 596 -47 ENROUTE
2026-05-08 18:39:11 210 464 39862 600 -46 ENROUTE
2026-05-08 18:39:41 209 463 39862 604 -46 ENROUTE
2026-05-08 18:40:11 209 463 39863 609 -46 ENROUTE
2026-05-08 18:40:41 209 463 39863 613 -46 ENROUTE
2026-05-08 18:41:11 209 463 39863 617 -46 ENROUTE
2026-05-08 18:41:41 209 463 39862 622 -46 ENROUTE
2026-05-08 18:42:11 210 462 39856 626 -46 ENROUTE
2026-05-08 18:42:41 210 462 39856 630 -46 ENROUTE
2026-05-08 18:43:11 210 461 39856 634 -46 ENROUTE
2026-05-08 18:43:41 209 461 39856 639 -46 ENROUTE
2026-05-08 18:44:11 209 460 39855 643 -46 ENROUTE
2026-05-08 18:44:41 210 460 39854 647 -46 ENROUTE
2026-05-08 18:45:11 209 460 39854 651 -46 ENROUTE
2026-05-08 18:45:41 209 459 39854 656 -46 ENROUTE
2026-05-08 18:46:11 209 459 39853 660 -46 ENROUTE
2026-05-08 18:46:41 208 459 39852 664 -47 ENROUTE
2026-05-08 18:47:11 208 459 39862 669 -46 ENROUTE
2026-05-08 18:47:41 208 459 39862 673 -46 ENROUTE
2026-05-08 18:48:11 208 459 39862 677 -46 ENROUTE
2026-05-08 18:48:41 208 460 39863 681 -46 ENROUTE
2026-05-08 18:49:11 209 460 39863 686 -46 ENROUTE
2026-05-08 18:49:41 212 464 39867 690 -46 ENROUTE
2026-05-08 18:50:11 214 468 39876 695 -46 ENROUTE
2026-05-08 18:50:41 216 471 39876 700 -46 ENROUTE
2026-05-08 18:51:11 217 473 39880 705 -46 ENROUTE
2026-05-08 18:51:41 218 476 39880 710 -46 ENROUTE
2026-05-08 18:52:11 219 477 39879 715 -46 ENROUTE
2026-05-08 18:52:41 220 479 39881 720 -46 ENROUTE
2026-05-08 18:53:11 221 480 39875 724 -46 ENROUTE
2026-05-08 18:53:41 220 482 39882 729 -47 ENROUTE
2026-05-08 18:54:11 221 483 39884 734 -47 ENROUTE
2026-05-08 18:54:41 222 484 39887 739 -47 ENROUTE
2026-05-08 18:55:11 222 485 39890 744 -47 ENROUTE
2026-05-08 18:55:41 223 485 39893 749 -47 ENROUTE
2026-05-08 18:56:11 223 486 39895 754 -47 ENROUTE
2026-05-08 18:56:41 223 486 39897 758 -47 ENROUTE
2026-05-08 18:57:11 225 486 39895 763 -47 ENROUTE
2026-05-08 18:57:41 225 486 39895 768 -47 ENROUTE
2026-05-08 18:58:11 225 486 39896 773 -47 ENROUTE
2026-05-08 18:58:41 224 485 39896 778 -47 ENROUTE
2026-05-08 18:59:11 225 485 39896 783 -47 ENROUTE
2026-05-08 18:59:41 223 485 39902 787 -47 ENROUTE
2026-05-08 19:00:11 223 485 39906 792 -47 ENROUTE
2026-05-08 19:00:41 224 486 39905 797 -47 ENROUTE
2026-05-08 19:01:11 224 486 39906 802 -47 ENROUTE
2026-05-08 19:01:41 225 486 39907 807 -47 ENROUTE
2026-05-08 19:02:11 225 486 39909 812 -47 ENROUTE
2026-05-08 19:02:41 225 486 39913 817 -47 ENROUTE
2026-05-08 19:03:11 225 486 39911 821 -47 ENROUTE
2026-05-08 19:03:41 225 486 39912 826 -47 ENROUTE
2026-05-08 19:04:11 226 485 39914 831 -47 ENROUTE
2026-05-08 19:04:41 226 485 39912 836 -47 ENROUTE
2026-05-08 19:05:11 225 484 39911 841 -47 ENROUTE
2026-05-08 19:05:41 223 484 39911 846 -47 ENROUTE
2026-05-08 19:06:11 223 484 39918 850 -47 ENROUTE
2026-05-08 19:06:41 225 484 39919 855 -47 ENROUTE
2026-05-08 19:07:11 225 484 39920 860 -47 ENROUTE
2026-05-08 19:07:41 225 484 39920 865 -47 ENROUTE
2026-05-08 19:08:11 225 484 39920 870 -47 ENROUTE
2026-05-08 19:08:41 225 484 39920 875 -47 ENROUTE
2026-05-08 19:09:11 225 484 39922 880 -47 ENROUTE
2026-05-08 19:09:41 225 483 39922 884 -47 ENROUTE
2026-05-08 19:10:11 225 483 39923 889 -47 ENROUTE
2026-05-08 19:10:41 225 483 39923 894 -47 ENROUTE
2026-05-08 19:11:11 226 483 39919 899 -47 ENROUTE
2026-05-08 19:11:41 226 482 39921 904 -47 ENROUTE
2026-05-08 19:12:11 225 481 39921 909 -47 ENROUTE
2026-05-08 19:12:41 225 481 39921 914 -47 ENROUTE
2026-05-08 19:13:11 225 481 39921 918 -47 ENROUTE
2026-05-08 19:13:41 224 481 39928 923 -47 ENROUTE
2026-05-08 19:14:11 224 481 39927 928 -47 ENROUTE
2026-05-08 19:14:41 224 481 39927 933 -47 ENROUTE
2026-05-08 19:15:11 224 481 39927 938 -47 ENROUTE
2026-05-08 19:15:41 224 481 39928 943 -47 ENROUTE
2026-05-08 19:16:11 224 481 39928 947 -47 ENROUTE
2026-05-08 19:16:41 224 481 39928 952 -47 ENROUTE
2026-05-08 19:17:11 224 481 39928 957 -47 ENROUTE
2026-05-08 19:17:41 224 481 39929 962 -47 ENROUTE
2026-05-08 19:18:11 225 481 39930 967 -47 ENROUTE
2026-05-08 19:18:41 225 480 39931 972 -47 ENROUTE
2026-05-08 19:19:11 225 480 39932 977 -47 ENROUTE
2026-05-08 19:19:41 225 480 39932 981 -47 ENROUTE
2026-05-08 19:20:11 225 480 39932 986 -47 ENROUTE
2026-05-08 19:20:41 226 479 39930 991 -47 ENROUTE
2026-05-08 19:21:11 225 479 39931 996 -47 ENROUTE
2026-05-08 19:21:41 225 478 39931 1001 -47 ENROUTE
2026-05-08 19:22:11 225 478 39931 1006 -47 ENROUTE
2026-05-08 19:22:41 225 478 39931 1010 -47 ENROUTE
2026-05-08 19:23:11 226 477 39926 1015 -47 ENROUTE
2026-05-08 19:23:41 224 477 39931 1020 -47 ENROUTE
2026-05-08 19:24:11 224 477 39931 1025 -47 ENROUTE
2026-05-08 19:24:41 224 478 39930 1030 -47 ENROUTE
2026-05-08 19:25:11 225 478 39931 1035 -47 ENROUTE
2026-05-08 19:25:41 225 477 39932 1039 -47 ENROUTE
2026-05-08 19:26:11 225 477 39932 1044 -47 ENROUTE
2026-05-08 19:26:41 225 477 39933 1049 -47 ENROUTE
2026-05-08 19:27:11 224 477 39933 1054 -47 ENROUTE
2026-05-08 19:27:41 225 477 39934 1059 -47 ENROUTE
2026-05-08 19:28:11 225 476 39935 1064 -47 ENROUTE
2026-05-08 19:28:41 225 476 39936 1068 -47 ENROUTE
2026-05-08 19:29:11 225 475 39935 1073 -47 ENROUTE
2026-05-08 19:29:41 225 475 39935 1078 -47 ENROUTE
2026-05-08 19:30:11 225 475 39936 1083 -46 ENROUTE
2026-05-08 19:30:41 225 474 39936 1088 -46 ENROUTE
2026-05-08 19:31:11 225 474 39936 1093 -47 ENROUTE
2026-05-08 19:31:41 225 474 39936 1097 -47 ENROUTE
2026-05-08 19:32:11 225 474 39932 1102 -46 ENROUTE
2026-05-08 19:32:41 225 473 39933 1107 -46 ENROUTE
2026-05-08 19:33:11 224 473 39933 1112 -47 ENROUTE
2026-05-08 19:33:41 224 473 39932 1117 -47 ENROUTE
2026-05-08 19:34:11 224 473 39931 1122 -47 ENROUTE
2026-05-08 19:34:41 225 473 39932 1126 -47 ENROUTE
2026-05-08 19:35:11 225 473 39932 1131 -47 ENROUTE
2026-05-08 19:35:41 224 472 39933 1136 -47 ENROUTE
2026-05-08 19:36:11 224 472 39933 1141 -47 ENROUTE
2026-05-08 19:36:41 222 468 39933 1145 -47 ENROUTE
2026-05-08 19:37:11 224 461 38827 1147 -46 DESCENT
2026-05-08 19:37:41 227 456 37336 1150 -45 DESCENT
2026-05-08 19:38:11 231 448 35938 1152 -45 DESCENT
2026-05-08 19:38:41 242 457 34741 1155 -44 DESCENT
2026-05-08 19:39:11 257 469 33434 1159 -44 DESCENT
2026-05-08 19:39:41 263 465 32086 1162 -43 DESCENT
2026-05-08 19:40:11 262 449 30915 1164 -43 DESCENT
2026-05-08 19:40:41 275 453 29702 1168 -42 DESCENT
2026-05-08 19:41:11 289 460 28427 1173 -42 DESCENT
2026-05-08 19:41:41 302 459 27339 1178 -42 DESCENT
2026-05-08 19:42:11 305 448 26243 1183 -41 DESCENT
2026-05-08 19:42:41 295 422 25148 1186 -41 DESCENT
2026-05-08 19:43:11 292 406 24057 1190 -40 DESCENT
2026-05-08 19:43:41 289 397 22961 1193 -39 DESCENT
2026-05-08 19:44:11 292 391 21879 1198 -38 DESCENT
2026-05-08 19:44:41 297 389 20970 1203 -36 DESCENT
2026-05-08 19:45:11 294 380 20029 1207 -33 DESCENT
2026-05-08 19:45:41 292 373 19077 1211 -31 DESCENT
2026-05-08 19:46:11 301 380 18091 1217 -29 DESCENT
2026-05-08 19:46:41 299 372 17082 1221 -26 DESCENT
2026-05-08 19:47:11 294 360 16260 1225 -25 DESCENT
2026-05-08 19:47:41 292 352 15450 1229 -23 DESCENT
2026-05-08 19:48:11 296 351 14559 1234 -21 DESCENT
2026-05-08 19:48:41 293 342 13644 1238 -19 DESCENT
2026-05-08 19:49:11 274 315 12767 1240 -17 DESCENT
2026-05-08 19:49:41 260 296 12020 1242 -16 DESCENT
2026-05-08 19:50:11 253 285 11305 1244 -15 DESCENT
2026-05-08 19:50:41 251 276 10600 1246 -13 DESCENT
2026-05-08 19:51:11 242 264 9900 1247 -12 DESCENT
2026-05-08 19:51:41 239 258 9208 1249 -10 DESCENT
2026-05-08 19:52:11 236 254 8572 1251 -9 DESCENT
2026-05-08 19:52:41 235 252 7952 1253 -8 DESCENT
2026-05-08 19:53:11 236 252 7320 1255 -7 DESCENT
2026-05-08 19:53:41 240 254 6679 1257 -7 DESCENT
2026-05-08 19:54:11 239 255 6015 1258 -6 DESCENT
2026-05-08 19:54:41 240 256 5360 1260 -5 DESCENT
2026-05-08 19:55:11 234 246 4727 1262 -3 DESCENT
2026-05-08 19:55:41 229 240 4108 1263 -3 DESCENT
2026-05-08 19:56:11 229 241 3514 1264 -2 DESCENT
2026-05-08 19:56:41 231 237 2899 1266 -2 DESCENT
2026-05-08 19:57:11 225 227 2133 1267 0 DESCENT
2026-05-08 19:57:41 185 185 1624 1269 0 DESCENT
2026-05-08 19:58:11 135 133 1240 1271 0 APPROACH
2026-05-08 19:58:41 152 151 948 1276 2 ON FINAL
2026-05-08 19:59:11 130 129 624 1279 3 ON FINAL
2026-05-08 19:59:41 121 121 424 1283 3 ON FINAL
2026-05-08 20:00:11 136 134 206 1287 3 ON FINAL
2026-05-08 20:00:41 68 66 11 1289 3 ON FINAL
2026-05-08 20:01:11 22 21 10 1291 3 TAXI TO APRON
2026-05-08 20:01:41 26 26 10 1293 3 TAXI TO APRON
2026-05-08 20:02:11 21 27 10 1295 3 TAXI TO APRON
2026-05-08 20:02:41 21 26 9 1297 3 TAXI TO APRON
2026-05-08 20:03:11 19 24 9 1299 3 TAXI TO APRON
2026-05-08 20:03:41 0 0 9 1300 3 TAXI TO APRON
2026-05-08 20:04:11 0 0 9 1300 3 TAXI TO APRON
  • Join our VA!

    It has been 11 years of great learning, friendships, and stories.

  • Sign up now!